Time;durP1;ratioP1;P1;durP2;ratioP2;P2;SDS_P1;SDS_P2;PMS_P1;PMS_P2;Temp;Humidity;BMP_temperature;BMP_pressure;BME280_temperature;BME280_humidity;BME280_pressure;Samples;Min_cycle;Max_cycle;Signal;HPM_P1;HPM_P2
2024/01/22 00:01:59;;;;;;;;;2.00;2.00;;;;;10.13;98.45;101420.44;5127973;27;69246;-58
2024/01/22 00:04:24;;;;;;;;;1.00;1.00;;;;;10.13;98.42;101399.19;5123427;27;71957;-59
2024/01/22 00:06:52;;;;;;;;;4.00;4.00;;;;;10.15;98.59;101407.97;5131085;27;67385;-58
2024/01/22 00:09:17;;;;;;;;;4.00;2.00;;;;;10.16;98.43;101389.31;5124010;27;45470;-58
2024/01/22 00:11:43;;;;;;;;;3.00;3.00;;;;;10.19;98.17;101380.34;5120611;27;45361;-58
2024/01/22 00:14:08;;;;;;;;;1.00;1.00;;;;;10.21;97.84;101397.13;5118618;27;75693;-59
2024/01/22 00:16:37;;;;;;;;;2.33;2.33;;;;;10.21;99.16;101350.09;5120155;27;66407;-58
2024/01/22 00:19:02;;;;;;;;;2.00;2.00;;;;;10.23;98.50;101366.00;5120822;27;45478;-58
2024/01/22 00:21:28;;;;;;;;;3.33;2.00;;;;;10.22;99.13;101319.06;5129560;27;47048;-58
2024/01/22 00:23:54;;;;;;;;;4.33;1.33;;;;;10.22;99.48;101348.31;5118122;27;73194;-58
2024/01/22 00:26:20;;;;;;;;;1.00;1.00;;;;;10.23;99.13;101313.72;5113965;27;46832;-58
2024/01/22 00:28:45;;;;;;;;;2.00;2.00;;;;;10.22;99.85;101327.03;5124863;27;69014;-58
2024/01/22 00:31:10;;;;;;;;;2.33;2.00;;;;;10.21;100.00;101312.88;5118488;27;59734;-58
2024/01/22 00:33:36;;;;;;;;;2.67;2.67;;;;;10.18;100.00;101330.75;5119283;27;45232;-58
2024/01/22 00:36:04;;;;;;;;;3.00;2.00;;;;;10.08;100.00;101328.47;5109747;27;69788;-59
2024/01/22 00:38:30;;;;;;;;;1.00;1.00;;;;;10.16;100.00;101351.22;5120447;27;45474;-58
2024/01/22 00:40:55;;;;;;;;;1.00;1.00;;;;;10.13;100.00;101320.31;5120563;27;45655;-59
2024/01/22 00:43:20;;;;;;;;;1.00;0.67;;;;;10.13;100.00;101317.66;5119466;27;46086;-58
2024/01/22 00:45:46;;;;;;;;;2.00;2.00;;;;;10.16;100.00;101329.97;5119604;27;73011;-58
2024/01/22 00:48:11;;;;;;;;;3.33;1.00;;;;;10.18;100.00;101334.28;5118227;27;64989;-58
2024/01/22 00:50:36;;;;;;;;;1.00;1.00;;;;;10.19;100.00;101329.81;5117471;27;70811;-59
2024/01/22 00:53:02;;;;;;;;;2.33;2.33;;;;;10.21;100.00;101298.75;5119099;27;71460;-58
2024/01/22 00:55:27;;;;;;;;;2.00;2.00;;;;;10.21;100.00;101328.00;5119366;27;45445;-59
2024/01/22 00:57:53;;;;;;;;;2.67;2.67;;;;;10.23;99.48;101328.78;5119190;27;45349;-58
2024/01/22 01:00:18;;;;;;;;;1.00;1.00;;;;;10.18;100.00;101318.34;5123248;27;63427;-59
2024/01/22 01:02:43;;;;;;;;;3.00;1.00;;;;;10.25;100.00;101324.28;5123115;27;47048;-58
2024/01/22 01:05:09;;;;;;;;;3.00;2.00;;;;;10.25;100.00;101313.63;5116863;27;72165;-58
2024/01/22 01:07:35;;;;;;;;;1.00;1.00;;;;;10.26;100.00;101334.00;5118049;27;69429;-58
2024/01/22 01:10:00;;;;;;;;;1.00;1.00;;;;;10.30;100.00;101359.53;5120573;27;45670;-58
2024/01/22 01:12:26;;;;;;;;;1.33;1.33;;;;;10.34;99.50;101336.31;5120286;27;46156;-58
2024/01/22 01:14:51;;;;;;;;;0.33;0.33;;;;;10.38;99.10;101335.31;5120161;27;63482;-60
2024/01/22 01:17:16;;;;;;;;;0.33;0.33;;;;;10.39;98.63;101313.97;5124384;27;68307;-58
2024/01/22 01:19:42;;;;;;;;;3.00;1.00;;;;;10.46;98.08;101327.03;5118018;27;66840;-58
2024/01/22 01:22:07;;;;;;;;;1.00;1.00;;;;;10.47;97.79;101318.97;5124557;27;69181;-59
2024/01/22 01:24:32;;;;;;;;;1.33;1.33;;;;;10.50;97.64;101297.56;5116592;27;66811;-58
2024/01/22 01:26:58;;;;;;;;;1.00;1.00;;;;;10.54;97.49;101250.44;5112458;27;62271;-58
2024/01/22 01:29:23;;;;;;;;;1.00;1.00;;;;;10.56;97.46;101296.47;5114988;27;64592;-59
2024/01/22 01:31:48;;;;;;;;;2.00;1.00;;;;;10.56;97.11;101299.13;5127727;27;57525;-58
2024/01/22 01:34:14;;;;;;;;;4.00;2.00;;;;;10.59;96.92;101265.25;5118614;27;68324;-59
2024/01/22 01:36:39;;;;;;;;;3.00;1.00;;;;;10.60;97.17;101266.13;5119680;27;45400;-58
2024/01/22 01:39:04;;;;;;;;;1.00;1.00;;;;;10.61;96.97;101251.88;5118349;27;67105;-58
2024/01/22 01:41:30;;;;;;;;;0.00;0.00;;;;;10.62;96.92;101237.66;5117345;27;46026;-58
2024/01/22 01:43:56;;;;;;;;;3.33;2.00;;;;;10.66;96.66;101273.81;5118384;27;45498;-58
2024/01/22 01:46:21;;;;;;;;;1.33;1.33;;;;;10.68;96.50;101289.75;5119181;27;45734;-58
2024/01/22 01:48:46;;;;;;;;;2.67;2.00;;;;;10.69;96.62;101291.47;5117919;27;69458;-58
2024/01/22 01:51:12;;;;;;;;;1.00;1.00;;;;;10.71;96.35;101269.19;5117529;27;46298;-59
2024/01/22 01:53:37;;;;;;;;;1.00;1.00;;;;;10.74;96.04;101279.72;5116202;27;72266;-59
2024/01/22 01:56:03;;;;;;;;;3.00;3.00;;;;;10.75;95.57;101273.47;5118298;27;68879;-59
2024/01/22 01:58:28;;;;;;;;;2.00;2.00;;;;;10.76;95.88;101267.19;5117679;27;45714;-58
2024/01/22 02:00:55;;;;;;;;;1.00;1.00;;;;;10.80;95.51;101267.06;5113080;27;58999;-59
2024/01/22 02:03:21;;;;;;;;;2.33;1.33;;;;;10.82;95.24;101271.41;5116725;27;45382;-59
2024/01/22 02:05:46;;;;;;;;;2.00;2.00;;;;;10.84;95.14;101255.34;5117612;27;69342;-59
2024/01/22 02:08:11;;;;;;;;;1.00;1.00;;;;;10.86;94.70;101261.44;5118552;27;45391;-59
2024/01/22 02:10:37;;;;;;;;;3.33;2.00;;;;;10.88;94.12;101278.22;5123860;27;45702;-59
2024/01/22 02:13:04;;;;;;;;;1.00;1.00;;;;;10.92;93.95;101269.19;5117016;27;65788;-58
2024/01/22 02:15:29;;;;;;;;;2.33;2.00;;;;;10.94;93.89;101296.59;5122329;27;45590;-59
2024/01/22 02:17:59;;;;;;;;;3.33;1.00;;;;;10.97;93.38;101261.84;5127292;27;45502;-59
2024/01/22 02:20:24;;;;;;;;;2.00;2.00;;;;;11.00;93.28;101275.03;5123905;27;46183;-58
2024/01/22 02:22:50;;;;;;;;;1.00;1.00;;;;;11.02;92.95;101272.31;5117336;27;75201;-57
2024/01/22 02:25:15;;;;;;;;;1.00;1.00;;;;;11.06;92.87;101265.91;5120551;27;69740;-57
2024/01/22 02:27:40;;;;;;;;;0.67;0.67;;;;;11.09;92.57;101266.66;5115362;27;45603;-57
2024/01/22 02:30:06;;;;;;;;;1.00;1.00;;;;;11.13;92.38;101272.69;5112588;27;46026;-57
2024/01/22 02:32:32;;;;;;;;;2.33;1.00;;;;;11.14;91.95;101245.13;5122907;27;45258;-57
2024/01/22 02:34:57;;;;;;;;;2.00;2.00;;;;;11.17;91.74;101229.03;5112063;27;70229;-57
2024/01/22 02:37:22;;;;;;;;;1.00;1.00;;;;;11.19;91.41;101218.31;5115912;27;60131;-57
2024/01/22 02:39:48;;;;;;;;;2.00;1.00;;;;;11.20;91.18;101217.38;5120381;27;51667;-57
2024/01/22 02:42:13;;;;;;;;;1.00;1.00;;;;;11.20;90.70;101207.56;5122267;27;45702;-58
2024/01/22 02:44:41;;;;;;;;;1.00;1.00;;;;;11.20;90.43;101207.56;5127115;27;63450;-57
2024/01/22 02:47:06;;;;;;;;;1.00;1.00;;;;;11.23;90.51;101209.22;5111341;27;45779;-57
2024/01/22 02:49:33;;;;;;;;;1.00;1.00;;;;;11.22;90.79;101197.72;5113656;27;46155;-57
2024/01/22 02:51:58;;;;;;;;;1.33;1.00;;;;;11.17;93.83;101194.41;5113458;27;45416;-58
2024/01/22 02:54:23;;;;;;;;;3.00;1.67;;;;;11.12;93.30;101199.09;5121709;27;45849;-58
2024/01/22 02:56:49;;;;;;;;;1.00;1.00;;;;;11.06;93.36;101191.38;5119462;27;60682;-57
2024/01/22 02:59:15;;;;;;;;;1.00;1.00;;;;;11.08;92.65;101176.19;5109115;27;46400;-58
2024/01/22 03:01:41;;;;;;;;;1.00;1.00;;;;;11.08;92.38;101184.16;5119194;27;45393;-58
2024/01/22 03:04:06;;;;;;;;;2.00;0.33;;;;;11.10;92.01;101179.66;5112535;27;48982;-57
2024/01/22 03:06:32;;;;;;;;;0.00;0.00;;;;;11.09;91.71;101170.81;5107737;27;45447;-57
2024/01/22 03:08:57;;;;;;;;;2.00;2.00;;;;;11.08;91.05;101173.50;5112889;27;45764;-57
2024/01/22 03:11:22;;;;;;;;;1.00;1.00;;;;;11.09;91.12;101165.47;5107388;27;70458;-57
2024/01/22 03:13:48;;;;;;;;;0.00;0.00;;;;;11.11;90.75;101183.16;5114807;27;45317;-58
2024/01/22 03:16:13;;;;;;;;;1.33;1.00;;;;;11.11;91.85;101161.88;5121388;27;45381;-57
2024/01/22 03:18:39;;;;;;;;;2.00;1.00;;;;;11.10;90.82;101147.69;5121096;27;62912;-57
2024/01/22 03:21:04;;;;;;;;;0.33;0.33;;;;;11.11;90.52;101169.84;5119350;27;45427;-57
2024/01/22 03:23:30;;;;;;;;;1.33;1.33;;;;;11.05;89.92;101134.59;5117066;27;45479;-58
2024/01/22 03:25:55;;;;;;;;;2.33;1.67;;;;;11.04;91.09;101143.53;5115783;27;45888;-58
2024/01/22 03:28:21;;;;;;;;;1.00;1.00;;;;;11.03;91.36;101148.91;5115944;27;72736;-58
2024/01/22 03:30:46;;;;;;;;;3.00;1.00;;;;;11.01;90.80;101134.81;5114943;27;45382;-58
2024/01/22 03:33:12;;;;;;;;;1.00;1.00;;;;;11.01;90.66;101133.00;5119944;27;45669;-58
2024/01/22 03:35:37;;;;;;;;;0.00;0.00;;;;;11.01;90.63;101142.81;5116248;27;65003;-59
2024/01/22 03:38:02;;;;;;;;;1.00;1.00;;;;;11.01;90.06;101133.00;5121185;27;75666;-58
2024/01/22 03:40:27;;;;;;;;;0.00;0.00;;;;;11.03;89.56;101138.25;5130790;27;45407;-58
2024/01/22 03:42:53;;;;;;;;;0.67;0.67;;;;;11.03;89.84;101135.59;5118189;27;51405;-58
2024/01/22 03:45:18;;;;;;;;;0.67;0.67;;;;;11.04;89.73;101124.91;5115474;27;70157;-58
2024/01/22 03:47:43;;;;;;;;;1.00;1.00;;;;;11.02;89.38;101164.03;5120144;27;74597;-58
2024/01/22 03:50:10;;;;;;;;;1.67;0.67;;;;;11.04;89.21;101122.25;5129908;27;72167;-58
2024/01/22 03:52:35;;;;;;;;;1.00;1.00;;;;;11.03;89.48;101120.50;5118628;27;45335;-58
2024/01/22 03:55:02;;;;;;;;;2.00;0.00;;;;;11.05;89.58;101125.75;5121415;27;69329;-58
2024/01/22 03:57:27;;;;;;;;;0.00;0.00;;;;;11.07;89.22;101135.41;5121127;27;45967;-58
2024/01/22 03:59:52;;;;;;;;;2.00;1.00;;;;;11.09;89.08;101112.25;5128405;27;70069;-58
2024/01/22 04:02:18;;;;;;;;;0.00;0.00;;;;;11.11;88.93;101121.94;5116677;27;69379;-58
2024/01/22 04:04:43;;;;;;;;;1.00;1.00;;;;;11.11;88.62;101122.81;5129265;27;45525;-58
2024/01/22 04:07:08;;;;;;;;;3.00;1.00;;;;;11.13;88.64;101117.41;5124983;27;47862;-58
2024/01/22 04:09:34;;;;;;;;;0.00;0.00;;;;;11.14;88.34;101119.13;5117542;27;71908;-58
2024/01/22 04:11:59;;;;;;;;;1.00;1.00;;;;;11.15;88.50;101107.56;5142797;27;64399;-58
2024/01/22 04:14:24;;;;;;;;;1.00;1.00;;;;;11.16;88.40;101104.81;5121970;27;61414;-58
2024/01/22 04:16:50;;;;;;;;;0.33;0.33;;;;;11.17;88.20;101103.00;5118255;27;75647;-58
2024/01/22 04:19:15;;;;;;;;;0.00;0.00;;;;;11.16;87.81;101091.50;5115145;27;45428;-58
2024/01/22 04:21:45;;;;;;;;;0.00;0.00;;;;;11.20;87.92;101092.22;5122081;27;67763;-58
2024/01/22 04:24:10;;;;;;;;;0.00;0.00;;;;;11.19;87.85;101104.66;5116892;27;45457;-58
2024/01/22 04:26:36;;;;;;;;;0.67;0.67;;;;;11.20;87.63;101086.91;5120530;27;45371;-58
2024/01/22 04:29:01;;;;;;;;;1.67;1.00;;;;;11.19;87.65;101110.00;5114246;27;66225;-58
2024/01/22 04:31:26;;;;;;;;;0.00;0.00;;;;;11.22;87.80;101114.31;5114842;27;66992;-58
2024/01/22 04:33:52;;;;;;;;;0.33;0.33;;;;;11.23;87.72;101114.22;5114858;27;64239;-58
2024/01/22 04:36:17;;;;;;;;;0.00;0.00;;;;;11.24;87.86;101097.31;5116875;27;64058;-58
2024/01/22 04:38:42;;;;;;;;;2.00;0.00;;;;;11.27;87.73;101106.97;5121496;27;73208;-58
2024/01/22 04:41:08;;;;;;;;;0.33;0.33;;;;;11.28;87.83;101099.81;5120539;27;45738;-58
2024/01/22 04:43:33;;;;;;;;;0.00;0.00;;;;;11.30;87.81;101095.31;5117661;27;66365;-58
2024/01/22 04:45:58;;;;;;;;;1.00;1.00;;;;;11.31;88.06;101089.91;5120008;27;71787;-58
2024/01/22 04:48:24;;;;;;;;;1.00;1.00;;;;;11.32;87.86;101088.97;5124119;27;75387;-59
2024/01/22 04:50:49;;;;;;;;;0.00;0.00;;;;;11.35;87.82;101083.47;5126279;27;45540;-58
2024/01/22 04:53:15;;;;;;;;;2.33;0.00;;;;;11.37;87.93;101083.44;5126777;27;45396;-58
2024/01/22 04:55:40;;;;;;;;;1.00;1.00;;;;;11.38;87.71;101088.66;5120146;27;45897;-59
2024/01/22 04:58:05;;;;;;;;;1.00;1.00;;;;;11.39;87.75;101078.88;5121580;27;62269;-59
2024/01/22 05:00:31;;;;;;;;;1.00;1.00;;;;;11.39;87.82;101066.44;5120233;27;67106;-59
2024/01/22 05:02:56;;;;;;;;;0.00;0.00;;;;;11.39;87.92;101095.72;5119329;27;45409;-59
2024/01/22 05:05:22;;;;;;;;;1.00;1.00;;;;;11.38;88.33;101091.34;5121769;27;49490;-59
2024/01/22 05:07:47;;;;;;;;;2.33;1.00;;;;;11.36;88.74;101085.22;5117061;27;70092;-59
2024/01/22 05:10:13;;;;;;;;;1.00;1.00;;;;;11.38;88.55;101067.38;5116359;27;66290;-59
2024/01/22 05:12:39;;;;;;;;;0.00;0.00;;;;;11.40;88.26;101072.63;5116596;27;45436;-58
2024/01/22 05:15:05;;;;;;;;;1.00;0.00;;;;;11.39;88.30;101061.09;5123403;27;46205;-58
2024/01/22 05:17:32;;;;;;;;;0.00;0.00;;;;;11.38;88.57;101051.38;5126137;27;45326;-59
2024/01/22 05:19:57;;;;;;;;;0.00;0.00;;;;;11.41;88.51;101072.53;5121283;27;45372;-59
2024/01/22 05:22:22;;;;;;;;;1.00;0.67;;;;;11.43;88.88;101069.78;5116540;27;45375;-59
2024/01/22 05:24:48;;;;;;;;;0.00;0.00;;;;;11.47;88.91;101057.19;5119536;27;45355;-59
2024/01/22 05:27:13;;;;;;;;;2.00;0.00;;;;;11.48;89.09;101046.44;5119694;27;74850;-59
2024/01/22 05:29:39;;;;;;;;;0.00;0.00;;;;;11.49;90.08;101066.81;5115957;27;61450;-59
2024/01/22 05:32:04;;;;;;;;;0.00;0.00;;;;;11.51;89.54;101062.28;5121500;27;45430;-59
2024/01/22 05:34:29;;;;;;;;;0.00;0.00;;;;;11.51;89.65;101056.97;5118340;27;46133;-59
2024/01/22 05:36:55;;;;;;;;;0.00;0.00;;;;;11.54;89.82;101063.94;5115684;27;71807;-59
2024/01/22 05:39:21;;;;;;;;;2.00;0.00;;;;;11.55;90.02;101062.97;5114258;27;45498;-59
2024/01/22 05:41:46;;;;;;;;;0.00;0.00;;;;;11.53;90.45;101068.41;5119350;27;45507;-58
2024/01/22 05:44:11;;;;;;;;;2.00;0.33;;;;;11.54;90.74;101062.13;5114287;27;71996;-59
2024/01/22 05:46:36;;;;;;;;;0.67;0.00;;;;;11.54;90.85;101046.16;5119582;27;72837;-59
2024/01/22 05:49:02;;;;;;;;;0.00;0.00;;;;;11.52;91.94;101049.81;5120314;27;45401;-59
2024/01/22 05:51:28;;;;;;;;;0.00;0.00;;;;;11.52;91.88;101049.81;5119541;27;45659;-59
2024/01/22 05:53:53;;;;;;;;;0.00;0.00;;;;;11.52;92.75;101036.50;5117157;27;48460;-59
2024/01/22 05:56:25;;;;;;;;;1.00;0.00;;;;;11.52;92.16;101042.69;5117431;27;63534;-58
2024/01/22 05:58:54;;;;;;;;;2.00;0.33;;;;;11.51;92.57;101032.13;5124022;27;45468;-59
2024/01/22 06:01:24;;;;;;;;;0.33;0.33;;;;;11.49;93.56;101031.34;5116520;27;45518;-59
2024/01/22 06:03:50;;;;;;;;;0.33;0.33;;;;;11.49;92.55;101037.53;5117996;27;45540;-59
2024/01/22 06:06:15;;;;;;;;;1.00;0.00;;;;;11.48;93.88;101037.59;5117385;27;46020;-58
2024/01/22 06:08:42;;;;;;;;;2.00;0.00;;;;;11.48;93.33;101033.13;5119217;27;45492;-59
2024/01/22 06:11:07;;;;;;;;;0.67;0.67;;;;;11.45;94.32;101033.28;5119269;27;45526;-59
2024/01/22 06:13:38;;;;;;;;;0.67;0.67;;;;;11.43;94.81;101040.50;5121086;27;46139;-59
2024/01/22 06:16:11;;;;;;;;;0.00;0.00;;;;;11.41;94.66;101037.06;5114846;27;45398;-59
2024/01/22 06:18:37;;;;;;;;;0.00;0.00;;;;;11.42;93.79;101036.97;5112886;27;45385;-59
2024/01/22 06:21:03;;;;;;;;;1.00;0.00;;;;;11.43;94.64;101024.50;5113560;27;45440;-58
2024/01/22 06:23:29;;;;;;;;;1.33;1.33;;;;;11.44;94.67;101054.69;5112676;27;46193;-58
2024/01/22 06:25:56;;;;;;;;;1.00;1.00;;;;;11.44;95.01;101017.41;5124364;27;45462;-59
2024/01/22 06:28:22;;;;;;;;;0.00;0.00;;;;;11.44;94.93;101038.69;5125738;27;45634;-59
2024/01/22 06:30:47;;;;;;;;;0.00;0.00;;;;;11.46;93.88;101018.16;5119605;27;45559;-60
2024/01/22 06:33:12;;;;;;;;;0.00;0.00;;;;;11.42;95.62;101026.31;5117177;27;74459;-58
2024/01/22 06:35:38;;;;;;;;;0.00;0.00;;;;;11.42;95.06;101039.63;5123376;27;48066;-61
2024/01/22 06:38:05;;;;;;;;;1.67;0.67;;;;;11.36;95.26;101031.94;5121753;27;45612;-58
2024/01/22 06:40:31;;;;;;;;;0.00;0.00;;;;;11.36;95.46;101023.94;5118315;27;45515;-58
2024/01/22 06:42:56;;;;;;;;;1.00;1.00;;;;;11.38;94.63;101024.75;5118027;27;46453;-59
2024/01/22 06:45:22;;;;;;;;;0.00;0.00;;;;;11.36;95.10;101010.63;5117188;27;45934;-58
2024/01/22 06:47:47;;;;;;;;;0.00;0.00;;;;;11.35;94.22;101030.22;5117475;27;68112;-58
2024/01/22 06:50:12;;;;;;;;;1.00;1.00;;;;;11.34;95.66;101025.84;5115902;27;69043;-58
2024/01/22 06:52:38;;;;;;;;;0.33;0.33;;;;;11.31;96.45;101018.00;5118501;27;59719;-58
2024/01/22 06:55:03;;;;;;;;;0.67;0.67;;;;;11.29;96.49;101025.22;5116843;27;72438;-58
2024/01/22 06:57:29;;;;;;;;;1.00;1.00;;;;;11.29;96.02;101029.66;5118765;27;45372;-58
2024/01/22 06:59:55;;;;;;;;;1.00;1.00;;;;;11.25;96.69;101027.16;5115948;27;62018;-58
2024/01/22 07:02:26;;;;;;;;;0.00;0.00;;;;;11.25;95.42;101027.16;5115438;27;47090;-58
2024/01/22 07:04:52;;;;;;;;;1.33;0.67;;;;;11.24;97.03;101021.91;5118485;27;45351;-58
2024/01/22 07:07:17;;;;;;;;;0.00;0.00;;;;;11.25;95.70;101023.63;5122112;27;45492;-58
2024/01/22 07:09:42;;;;;;;;;0.00;0.00;;;;;11.27;96.40;101031.56;5117947;27;70435;-58
2024/01/22 07:12:08;;;;;;;;;1.00;1.00;;;;;11.24;97.35;101029.91;5119806;27;75423;-59
2024/01/22 07:14:34;;;;;;;;;0.00;0.00;;;;;11.21;98.38;101001.63;5118181;27;45314;-58
2024/01/22 07:17:00;;;;;;;;;0.00;0.00;;;;;11.20;97.64;101010.53;5108643;27;69065;-58
2024/01/22 07:19:25;;;;;;;;;1.00;1.00;;;;;11.17;98.65;101040.00;5115492;27;46954;-58
2024/01/22 07:21:50;;;;;;;;;0.00;0.00;;;;;11.18;97.67;101027.53;5121655;27;46867;-58
2024/01/22 07:24:16;;;;;;;;;0.00;0.00;;;;;11.18;98.72;101040.84;5119744;27;72141;-58
2024/01/22 07:26:42;;;;;;;;;0.33;0.33;;;;;11.13;100.00;101030.41;5116003;27;69396;-58
2024/01/22 07:29:07;;;;;;;;;1.00;1.00;;;;;11.08;100.00;101019.13;5117193;27;45392;-59
2024/01/22 07:31:32;;;;;;;;;0.33;0.33;;;;;11.08;100.00;101022.66;5111808;27;70183;-59
2024/01/22 07:33:58;;;;;;;;;1.00;1.00;;;;;11.09;100.00;101037.69;5119337;27;45487;-59
2024/01/22 07:36:23;;;;;;;;;1.00;1.00;;;;;11.11;99.33;101032.28;5114215;27;69303;-58
2024/01/22 07:38:51;;;;;;;;;0.00;0.00;;;;;11.13;99.62;101032.22;5118804;27;45560;-59
2024/01/22 07:41:16;;;;;;;;;0.00;0.00;;;;;11.13;100.00;101037.53;5123709;27;46048;-59
2024/01/22 07:43:42;;;;;;;;;0.67;0.67;;;;;11.16;99.86;101042.69;5110428;27;74737;-59
2024/01/22 07:46:07;;;;;;;;;0.00;0.00;;;;;11.20;99.66;101054.97;5124820;27;45314;-59
2024/01/22 07:48:32;;;;;;;;;1.00;1.00;;;;;11.24;100.00;101049.38;5121776;27;45352;-59
2024/01/22 07:50:58;;;;;;;;;0.00;0.00;;;;;11.31;99.85;101049.94;5119914;27;47135;-59
2024/01/22 07:53:23;;;;;;;;;1.00;1.00;;;;;11.36;99.34;101055.06;5120185;27;71914;-59
2024/01/22 07:55:48;;;;;;;;;0.33;0.33;;;;;11.39;99.02;101061.09;5119307;27;63735;-58
2024/01/22 07:58:14;;;;;;;;;0.00;0.00;;;;;11.45;98.79;101065.25;5121415;27;45595;-59
2024/01/22 08:00:40;;;;;;;;;2.00;2.00;;;;;11.48;99.17;101073.09;5121037;27;46129;-59
2024/01/22 08:03:05;;;;;;;;;1.67;1.67;;;;;11.52;99.38;101081.78;5116768;27;45442;-59
2024/01/22 08:05:31;;;;;;;;;2.33;1.00;;;;;11.56;98.74;101070.03;5116610;27;45365;-59
2024/01/22 08:07:56;;;;;;;;;0.67;0.00;;;;;11.59;99.00;101080.56;5121313;27;45562;-59
2024/01/22 08:10:22;;;;;;;;;6.33;3.00;;;;;11.63;98.04;101076.81;5119325;27;46280;-59
2024/01/22 08:12:47;;;;;;;;;2.00;2.00;;;;;11.65;97.75;101082.91;5119971;27;73349;-59
2024/01/22 08:15:14;;;;;;;;;1.00;1.00;;;;;11.70;97.45;101090.69;5118095;27;45947;-58
2024/01/22 08:17:42;;;;;;;;;1.67;0.00;;;;;11.67;98.60;101089.03;5136199;27;45643;-59
2024/01/22 08:20:08;;;;;;;;;0.33;0.33;;;;;11.72;97.77;101140.28;5116973;27;46145;-59
2024/01/22 08:22:33;;;;;;;;;0.67;0.67;;;;;11.75;97.57;101140.13;5117908;27;45740;-59
2024/01/22 08:24:58;;;;;;;;;0.67;0.67;;;;;11.77;97.92;101165.84;5112308;27;62521;-59
2024/01/22 08:27:24;;;;;;;;;2.00;1.00;;;;;11.78;97.63;101187.09;5113761;27;71029;-59
2024/01/22 08:29:49;;;;;;;;;1.00;1.00;;;;;11.79;98.52;101185.31;5101784;27;72517;-59
2024/01/22 08:32:14;;;;;;;;;4.00;1.00;;;;;11.82;97.77;101183.31;5111756;27;45472;-59
2024/01/22 08:34:40;;;;;;;;;0.33;0.33;;;;;11.82;99.01;101185.13;5110788;27;58516;-59
2024/01/22 08:37:05;;;;;;;;;1.00;0.33;;;;;11.80;98.92;101177.22;5116564;27;45726;-59
2024/01/22 08:39:31;;;;;;;;;0.67;0.67;;;;;11.81;98.75;101178.97;5119198;27;45474;-59
2024/01/22 08:41:56;;;;;;;;;0.00;0.00;;;;;11.87;98.59;101185.78;5117278;27;45733;-59
2024/01/22 08:44:21;;;;;;;;;3.00;0.00;;;;;11.92;98.63;101179.28;5108423;27;63908;-59
2024/01/22 08:46:47;;;;;;;;;0.00;0.00;;;;;11.97;99.31;101189.75;5105610;27;68969;-59
2024/01/22 08:49:12;;;;;;;;;1.00;1.00;;;;;12.00;99.21;101186.06;5117785;27;46099;-59
2024/01/22 08:51:37;;;;;;;;;0.33;0.00;;;;;12.02;99.03;101195.72;5116042;27;58394;-59
2024/01/22 08:54:03;;;;;;;;;1.33;0.00;;;;;12.04;98.80;101201.81;5115245;27;59844;-59
2024/01/22 08:56:28;;;;;;;;;1.00;1.00;;;;;12.04;99.28;101204.50;5117244;27;45491;-59
2024/01/22 08:58:53;;;;;;;;;2.67;1.00;;;;;12.03;97.80;101200.13;5116278;27;75238;-59
2024/01/22 09:01:19;;;;;;;;;1.00;1.00;;;;;12.04;97.75;101208.97;5116736;27;66741;-59
2024/01/22 09:03:44;;;;;;;;;2.33;0.00;;;;;12.03;97.33;101199.25;5118018;27;45653;-59
2024/01/22 09:06:09;;;;;;;;;5.00;1.00;;;;;12.03;96.59;101194.78;5114132;27;70451;-59
2024/01/22 09:08:36;;;;;;;;;2.00;1.00;;;;;12.04;96.01;101212.50;5114012;27;45954;-59
2024/01/22 09:11:02;;;;;;;;;0.67;0.67;;;;;12.05;95.45;101216.88;5117564;27;45287;-59
2024/01/22 09:13:27;;;;;;;;;2.00;1.00;;;;;12.06;96.44;101215.09;5118900;27;45628;-59
2024/01/22 09:15:53;;;;;;;;;0.00;0.00;;;;;12.06;97.81;101215.94;5115769;27;45773;-58
2024/01/22 09:18:19;;;;;;;;;0.00;0.00;;;;;12.09;97.25;101225.59;5115750;27;46877;-58
2024/01/22 09:20:44;;;;;;;;;2.00;1.00;;;;;12.17;98.71;101235.88;5112464;27;73166;-58
2024/01/22 09:23:09;;;;;;;;;0.00;0.00;;;;;12.30;97.17;101237.00;5118688;27;46352;-58
2024/01/22 09:25:36;;;;;;;;;0.00;0.00;;;;;12.44;97.64;101233.63;5117889;27;71719;-58
2024/01/22 09:28:02;;;;;;;;;1.00;1.00;;;;;12.59;96.99;101229.31;5115040;27;47156;-58
2024/01/22 09:30:27;;;;;;;;;2.00;0.67;;;;;12.73;95.57;101233.94;5111505;27;45328;-59
2024/01/22 09:32:57;;;;;;;;;1.33;0.00;;;;;12.86;94.70;101234.16;5115891;27;45549;-59
2024/01/22 09:35:23;;;;;;;;;0.00;0.00;;;;;13.00;94.34;101239.63;5112524;27;45518;-59
2024/01/22 09:37:48;;;;;;;;;2.33;1.00;;;;;13.13;93.84;101247.84;5120221;27;46023;-58
2024/01/22 09:40:14;;;;;;;;;0.00;0.00;;;;;13.24;93.14;101256.16;5110028;27;72188;-59
2024/01/22 09:42:39;;;;;;;;;0.00;0.00;;;;;13.31;92.59;101264.69;5109975;27;63294;-59
2024/01/22 09:45:06;;;;;;;;;3.00;1.00;;;;;13.36;91.84;101259.09;5139493;27;67229;-59
2024/01/22 09:47:31;;;;;;;;;1.00;1.00;;;;;13.37;91.48;101261.69;5114479;27;46443;-59
2024/01/22 09:49:57;;;;;;;;;0.33;0.33;;;;;13.37;90.90;101255.50;5114750;27;64140;-59
2024/01/22 09:52:24;;;;;;;;;1.00;1.00;;;;;13.35;90.49;101270.72;5116482;27;55426;-59
2024/01/22 09:54:50;;;;;;;;;1.00;0.00;;;;;13.33;89.54;101277.97;5113488;27;45363;-60
2024/01/22 09:57:18;;;;;;;;;6.00;1.00;;;;;13.33;89.43;101264.59;5113675;27;70019;-59
2024/01/22 09:59:44;;;;;;;;;2.33;2.00;;;;;13.32;88.66;101268.22;5115120;27;45389;-59
2024/01/22 10:02:15;;;;;;;;;4.00;1.00;;;;;13.32;87.69;101271.75;5117634;27;45583;-59
2024/01/22 10:04:41;;;;;;;;;3.00;2.33;;;;;13.34;86.91;101258.31;5116966;27;45419;-60
2024/01/22 10:07:07;;;;;;;;;1.67;1.00;;;;;13.35;85.88;101273.38;5147202;27;45625;-59
2024/01/22 10:09:32;;;;;;;;;1.00;1.00;;;;;13.35;82.99;101289.41;5115189;27;45316;-60
2024/01/22 10:11:58;;;;;;;;;2.00;2.00;;;;;13.30;82.38;101305.72;5115600;27;45424;-59
2024/01/22 10:14:29;;;;;;;;;5.00;2.00;;;;;13.22;84.18;101306.13;5113935;27;68829;-59
2024/01/22 10:16:55;;;;;;;;;2.00;1.67;;;;;13.10;84.83;101298.75;5111497;27;46160;-60
2024/01/22 10:19:24;;;;;;;;;1.00;1.00;;;;;12.96;84.81;101317.28;5113098;27;72185;-60
2024/01/22 10:22:00;;;;;;;;;2.00;1.33;;;;;12.80;85.04;101306.53;5106970;27;45569;-59
2024/01/22 10:24:25;;;;;;;;;0.00;0.00;;;;;12.65;85.80;101310.88;5110259;27;45460;-60
2024/01/22 10:26:50;;;;;;;;;1.00;1.00;;;;;12.54;85.95;101332.75;5117003;27;71973;-60
2024/01/22 10:29:18;;;;;;;;;1.00;1.00;;;;;12.42;86.04;101326.22;5116917;27;69908;-59
2024/01/22 10:31:56;;;;;;;;;1.33;1.00;;;;;12.28;86.41;101332.25;5108881;27;45432;-61
2024/01/22 10:34:30;;;;;;;;;0.00;0.00;;;;;12.18;86.92;101329.16;5113136;27;46069;-60
2024/01/22 10:37:07;;;;;;;;;2.33;1.00;;;;;12.13;88.19;101325.84;5106292;27;45530;-59
2024/01/22 10:39:42;;;;;;;;;2.00;2.00;;;;;12.14;88.13;101334.72;5106969;27;45393;-60
2024/01/22 10:42:08;;;;;;;;;4.00;2.00;;;;;12.16;88.46;101332.81;5111648;27;45284;-60
2024/01/22 10:44:35;;;;;;;;;1.67;1.67;;;;;12.22;88.78;101335.19;5114797;27;45591;-60
2024/01/22 10:47:01;;;;;;;;;6.00;5.00;;;;;12.32;88.77;101333.81;5114263;27;46296;-59
2024/01/22 10:49:27;;;;;;;;;2.33;1.00;;;;;12.38;87.92;101329.97;5114492;27;45355;-59
2024/01/22 10:51:54;;;;;;;;;1.00;1.00;;;;;12.40;87.56;101344.97;5117399;27;68238;-59
2024/01/22 10:54:19;;;;;;;;;3.33;2.00;;;;;12.44;87.04;101355.47;5137046;27;66791;-59
2024/01/22 10:56:51;;;;;;;;;2.00;2.00;;;;;12.43;86.99;101335.09;5114683;27;74214;-59
2024/01/22 10:59:20;;;;;;;;;4.33;2.00;;;;;12.43;86.98;101343.09;5117808;27;45506;-59
2024/01/22 11:01:46;;;;;;;;;4.67;3.00;;;;;12.39;86.96;101343.22;5115689;27;45660;-58
2024/01/22 11:04:12;;;;;;;;;1.33;1.33;;;;;12.29;86.33;101315.28;5121745;27;45530;-59
2024/01/22 11:06:41;;;;;;;;;3.67;2.00;;;;;12.26;86.33;101314.59;5114863;27;45647;-58
2024/01/22 11:09:08;;;;;;;;;3.00;2.00;;;;;12.32;86.44;101322.25;5119826;27;63522;-59
2024/01/22 11:11:35;;;;;;;;;0.33;0.33;;;;;12.43;85.84;101327.09;5116651;27;68213;-59
2024/01/22 11:14:02;;;;;;;;;3.00;2.00;;;;;12.48;85.81;101325.06;5120348;27;45492;-59
2024/01/22 11:16:27;;;;;;;;;4.33;2.00;;;;;12.54;85.49;101327.41;5119908;27;48164;-58
2024/01/22 11:19:01;;;;;;;;;2.33;2.33;;;;;12.57;85.57;101325.44;5117593;27;45503;-58